createdAt,value
2022-11-05T00:01:51.812Z,8.75
2022-11-05T00:07:46.922Z,8.78
2022-11-05T00:10:38.252Z,8.75
2022-11-05T00:13:44.429Z,8.80
2022-11-05T00:16:44.983Z,8.61
2022-11-05T00:22:33.858Z,8.33
2022-11-05T00:25:28.583Z,8.32
2022-11-05T00:31:04.524Z,8.60
2022-11-05T00:36:47.815Z,8.72
2022-11-05T00:42:41.070Z,8.74
2022-11-05T00:45:29.975Z,8.83
2022-11-05T00:50:59.005Z,8.82
2022-11-05T00:59:17.680Z,8.76
2022-11-05T01:04:56.233Z,8.87
2022-11-05T01:07:44.748Z,8.72
2022-11-05T01:13:13.404Z,8.81
2022-11-05T01:16:12.455Z,8.70
2022-11-05T01:21:45.750Z,8.55
2022-11-05T01:27:17.670Z,8.60
2022-11-05T01:30:10.773Z,8.63
2022-11-05T01:35:39.753Z,8.68
2022-11-05T01:41:09.883Z,8.64
2022-11-05T01:49:37.693Z,8.69
2022-11-05T01:55:23.968Z,8.28
2022-11-05T02:01:03.050Z,8.28
2022-11-05T02:06:36.130Z,8.57
2022-11-05T02:09:27.665Z,8.43
2022-11-05T02:12:16.856Z,8.66
2022-11-05T02:17:59.498Z,8.42
2022-11-05T02:24:03.356Z,8.45
2022-11-05T02:27:04.447Z,8.56
2022-11-05T02:33:12.327Z,8.67
2022-11-05T02:38:49.992Z,8.76
2022-11-05T02:44:32.572Z,8.84
2022-11-05T02:50:10.649Z,8.73
2022-11-05T02:55:50.344Z,8.57
2022-11-05T03:01:20.197Z,8.59
2022-11-05T03:04:13.070Z,8.40
2022-11-05T03:10:32.917Z,8.35
2022-11-05T03:16:07.057Z,8.49
2022-11-05T03:22:09.838Z,8.42
2022-11-05T03:25:01.461Z,8.33
2022-11-05T03:30:44.018Z,8.31
2022-11-05T03:36:24.338Z,8.45
2022-11-05T03:42:08.086Z,8.55
2022-11-05T03:47:51.123Z,8.57
2022-11-05T03:53:34.374Z,8.57
2022-11-05T03:59:15.168Z,8.58
2022-11-05T04:05:03.432Z,8.58
2022-11-05T04:11:05.526Z,8.70
2022-11-05T04:13:53.962Z,8.47
2022-11-05T04:17:00.341Z,8.36
2022-11-05T04:20:11.888Z,8.44
2022-11-05T04:29:49.264Z,8.43
2022-11-05T04:35:26.738Z,8.49
2022-11-05T04:38:16.035Z,8.53
2022-11-05T04:43:58.008Z,8.49
2022-11-05T04:46:46.227Z,8.53
2022-11-05T04:49:34.611Z,8.51
2022-11-05T04:52:22.504Z,8.57
2022-11-05T04:55:13.282Z,8.45
2022-11-05T05:01:04.532Z,8.27
2022-11-05T05:06:39.801Z,8.16
2022-11-05T05:09:28.152Z,7.96
2022-11-05T05:12:17.275Z,8.21
2022-11-05T05:15:06.652Z,8.16
2022-11-05T05:17:59.713Z,8.16
2022-11-05T05:24:14.338Z,8.18
2022-11-05T05:29:43.681Z,8.17
2022-11-05T05:35:13.386Z,8.16
2022-11-05T05:38:02.542Z,8.12
2022-11-05T05:43:52.124Z,8.27
2022-11-05T05:49:30.220Z,8.20
2022-11-05T05:52:18.484Z,8.10
2022-11-05T05:57:57.204Z,8.23
2022-11-05T06:03:39.988Z,8.17
2022-11-05T06:13:22.877Z,8.01
2022-11-05T06:16:41.418Z,8.22
2022-11-05T06:19:49.763Z,8.23
2022-11-05T06:22:45.636Z,8.19
2022-11-05T06:25:44.724Z,8.25
2022-11-05T06:28:33.506Z,8.10
2022-11-05T06:31:24.759Z,8.31
2022-11-05T06:34:12.968Z,8.10
2022-11-05T06:39:46.489Z,8.10
2022-11-05T06:42:34.774Z,8.13
2022-11-05T06:45:23.201Z,8.21
2022-11-05T06:50:59.652Z,8.36
2022-11-05T06:53:47.850Z,8.23
2022-11-05T06:59:21.109Z,8.15
2022-11-05T07:10:54.492Z,7.79
2022-11-05T07:13:58.836Z,7.86
2022-11-05T07:22:21.924Z,8.14
2022-11-05T07:27:55.102Z,8.21
2022-11-05T07:33:32.313Z,8.18
2022-11-05T07:36:18.291Z,8.12
2022-11-05T07:39:07.575Z,8.12
2022-11-05T07:44:42.064Z,8.00
2022-11-05T07:50:13.587Z,8.01
2022-11-05T07:55:58.772Z,8.04
2022-11-05T08:01:28.189Z,8.33
2022-11-05T08:07:04.691Z,8.39
2022-11-05T08:09:53.714Z,8.41
2022-11-05T08:15:28.873Z,8.48
2022-11-05T08:18:18.342Z,8.38
2022-11-05T08:24:01.239Z,8.26
2022-11-05T08:29:33.721Z,8.39
2022-11-05T08:35:10.154Z,8.33
2022-11-05T08:40:40.095Z,8.45
2022-11-05T08:43:29.158Z,8.40
2022-11-05T08:49:08.470Z,8.53
2022-11-05T08:54:44.614Z,8.61
2022-11-05T09:00:21.336Z,8.78
2022-11-05T09:03:11.388Z,8.74
2022-11-05T09:05:59.968Z,8.90
2022-11-05T09:08:49.370Z,8.90
2022-11-05T09:14:18.517Z,8.83
2022-11-05T09:17:15.145Z,9.01
2022-11-05T09:22:46.222Z,9.16
2022-11-05T09:25:35.744Z,9.04
2022-11-05T09:31:21.358Z,9.25
2022-11-05T09:34:10.208Z,9.09
2022-11-05T09:37:03.321Z,9.09
2022-11-05T09:42:47.172Z,9.37
2022-11-05T09:48:29.100Z,9.33
2022-11-05T09:51:23.646Z,9.38
2022-11-05T09:56:56.198Z,9.25
2022-11-05T10:02:53.495Z,9.35
2022-11-05T10:05:43.304Z,9.15
2022-11-05T10:11:29.049Z,8.94
2022-11-05T10:14:20.880Z,9.11
2022-11-05T10:19:53.642Z,9.18
2022-11-05T10:25:25.623Z,9.42
2022-11-05T10:31:02.173Z,9.27
2022-11-05T10:36:38.970Z,9.77
2022-11-05T10:39:30.336Z,9.80
2022-11-05T10:42:33.796Z,10.00
2022-11-05T10:45:28.928Z,10.11
2022-11-05T10:48:44.289Z,10.31
2022-11-05T10:51:33.892Z,10.47
2022-11-05T10:54:25.351Z,10.53
2022-11-05T11:00:31.026Z,10.57
2022-11-05T11:03:42.415Z,10.64
2022-11-05T11:09:20.773Z,10.78
2022-11-05T11:15:04.645Z,10.81
2022-11-05T11:17:53.331Z,10.81
2022-11-05T11:20:45.026Z,10.87
2022-11-05T11:23:42.614Z,10.94
2022-11-05T11:29:34.866Z,10.96
2022-11-05T11:41:08.011Z,10.59
2022-11-05T11:46:41.643Z,10.70
2022-11-05T11:52:27.528Z,10.77
2022-11-05T12:01:01.875Z,10.96
2022-11-05T12:06:36.516Z,11.05
2022-11-05T12:12:15.443Z,10.94
2022-11-05T12:15:09.444Z,10.93
2022-11-05T12:18:02.398Z,11.31
2022-11-05T12:24:14.470Z,11.49
2022-11-05T12:29:58.865Z,11.85
2022-11-05T12:35:52.109Z,12.29
2022-11-05T12:53:14.543Z,11.34
2022-11-05T12:56:06.333Z,11.12
2022-11-05T12:58:58.236Z,10.95
2022-11-05T13:04:31.291Z,11.01
2022-11-05T13:10:04.682Z,11.26
2022-11-05T13:15:38.518Z,11.13
2022-11-05T13:21:12.280Z,11.13
2022-11-05T13:26:49.199Z,10.99
2022-11-05T13:32:28.735Z,10.21
2022-11-05T13:38:27.951Z,9.63
2022-11-05T13:44:48.861Z,9.74
2022-11-05T13:51:03.141Z,9.62
2022-11-05T13:54:56.288Z,9.68
2022-11-05T14:01:07.330Z,9.47
2022-11-05T14:07:07.988Z,9.56
2022-11-05T14:12:47.162Z,9.37
2022-11-05T14:18:37.141Z,9.53
2022-11-05T14:30:42.680Z,9.53
2022-11-05T14:52:56.350Z,9.68
2022-11-05T14:58:44.925Z,9.53
2022-11-05T15:05:17.129Z,9.32
2022-11-05T15:08:32.836Z,9.27
2022-11-05T15:11:24.522Z,9.22
2022-11-05T15:17:13.637Z,9.37
2022-11-05T15:20:15.146Z,9.35
2022-11-05T15:25:56.005Z,9.43
2022-11-05T15:31:39.955Z,9.36
2022-11-05T15:34:31.316Z,9.35
2022-11-05T15:37:24.909Z,9.18
2022-11-05T15:40:25.353Z,9.15
2022-11-05T15:46:18.552Z,9.18
2022-11-05T15:49:08.794Z,9.13
2022-11-05T15:51:57.814Z,9.05
2022-11-05T15:54:46.436Z,9.04
2022-11-05T15:57:40.076Z,9.05
2022-11-05T16:00:29.382Z,9.04
2022-11-05T16:03:22.436Z,9.02
2022-11-05T16:06:11.211Z,8.92
2022-11-05T16:08:59.031Z,8.94
2022-11-05T16:11:48.304Z,8.88
2022-11-05T16:17:24.764Z,8.82
2022-11-05T16:25:57.145Z,8.74
2022-11-05T16:31:52.427Z,8.60
2022-11-05T16:37:26.343Z,8.64
2022-11-05T16:40:17.823Z,8.57
2022-11-05T16:46:04.943Z,8.46
2022-11-05T16:51:43.781Z,8.51
2022-11-05T16:57:19.595Z,8.56
2022-11-05T17:00:27.217Z,8.44
2022-11-05T17:03:16.695Z,8.38
2022-11-05T17:06:05.368Z,8.32
2022-11-05T17:11:42.266Z,8.38
2022-11-05T17:17:23.557Z,8.38
2022-11-05T17:20:15.350Z,8.32
2022-11-05T17:25:50.433Z,8.32
2022-11-05T17:31:27.180Z,8.31
2022-11-05T17:37:04.445Z,8.23
2022-11-05T17:42:58.683Z,8.27
2022-11-05T17:45:49.866Z,8.20
2022-11-05T17:51:25.527Z,8.26
2022-11-05T17:57:00.326Z,8.33
2022-11-05T18:05:25.062Z,8.34
2022-11-05T18:08:13.902Z,8.27
2022-11-05T18:13:44.116Z,8.30
2022-11-05T18:19:20.140Z,8.38
2022-11-05T18:24:58.516Z,8.26
2022-11-05T18:30:41.612Z,8.19
2022-11-05T18:36:27.742Z,8.28
2022-11-05T18:39:15.955Z,8.27
2022-11-05T18:44:53.228Z,8.41
2022-11-05T18:50:30.324Z,8.45
2022-11-05T18:53:19.388Z,8.46
2022-11-05T18:59:35.199Z,8.43
2022-11-05T19:02:01.407Z,8.37
2022-11-05T19:07:33.525Z,8.34
2022-11-05T19:13:07.905Z,8.17
2022-11-05T19:15:57.562Z,8.13
2022-11-05T19:21:34.819Z,7.91
2022-11-05T19:27:07.774Z,7.83
2022-11-05T19:29:56.293Z,7.79
2022-11-05T19:35:33.698Z,7.73
2022-11-05T19:41:12.499Z,7.40
2022-11-05T19:46:44.857Z,7.31
2022-11-05T19:52:19.716Z,7.26
2022-11-05T19:55:12.269Z,7.08
2022-11-05T19:58:00.621Z,7.21
2022-11-05T20:06:38.765Z,7.06
2022-11-05T20:09:31.113Z,6.95
2022-11-05T20:12:19.485Z,6.70
2022-11-05T20:15:09.517Z,6.80
2022-11-05T20:17:58.189Z,6.78
2022-11-05T20:23:37.531Z,6.89
2022-11-05T20:26:42.992Z,6.89
2022-11-05T20:32:15.326Z,6.75
2022-11-05T20:37:54.149Z,6.68
2022-11-05T20:43:55.386Z,6.74
2022-11-05T20:49:33.512Z,6.77
2022-11-05T20:55:12.475Z,6.60
2022-11-05T21:00:58.286Z,6.63
2022-11-05T21:06:38.330Z,6.52
2022-11-05T21:09:27.272Z,6.45
2022-11-05T21:12:15.504Z,6.49
2022-11-05T21:15:07.054Z,6.57
2022-11-05T21:20:44.517Z,6.70
2022-11-05T21:23:32.608Z,6.58
2022-11-05T21:26:21.095Z,6.54
2022-11-05T21:34:40.454Z,6.49
2022-11-05T21:40:17.066Z,6.43
2022-11-05T21:43:06.476Z,6.49
2022-11-05T21:51:46.273Z,6.56
2022-11-05T21:57:45.880Z,6.42
2022-11-05T22:03:34.884Z,6.25
2022-11-05T22:09:21.005Z,6.28
2022-11-05T22:14:55.323Z,6.44
2022-11-05T22:20:46.020Z,6.53
2022-11-05T22:29:12.196Z,6.34
2022-11-05T22:32:01.264Z,6.22
2022-11-05T22:37:37.175Z,6.24
2022-11-05T22:40:27.101Z,6.09
2022-11-05T22:43:15.467Z,6.09
2022-11-05T22:48:52.547Z,6.24
2022-11-05T22:54:28.767Z,5.98
2022-11-05T23:00:04.029Z,6.16
2022-11-05T23:02:53.453Z,6.20
2022-11-05T23:05:41.886Z,6.21
2022-11-05T23:11:38.858Z,6.12
2022-11-05T23:17:36.275Z,6.14
2022-11-05T23:20:44.692Z,6.02
2022-11-05T23:39:13.207Z,6.17
2022-11-05T23:42:35.864Z,6.08
2022-11-05T23:45:47.652Z,5.99
2022-11-05T23:48:37.735Z,5.88
2022-11-05T23:54:24.369Z,5.96
2022-11-05T23:57:21.204Z,5.92
